Messwerte Fort Lewis

Temperatur

Temperatur
°C
1623546000 18.00 18.00 21
1623549600 19.00 19.00 21
1623553200 20.00 20.00
1623556800 21.00 21.00 18
1623560400 22.00 22.00 16
1623564000 23.00 23.00 15
1623567600 0.00 0.00 15
1623571200 1.00 1.00 16
1623574800 2.00 2.00 16
1623578400 3.00 3.00 16
1623582000 4.00 4.00 16
1623585600 5.00 5.00
1623589200 6.00 6.00 15
1623592800 7.00 7.00 15
1623596400 8.00 8.00 15
1623600000 9.00 9.00 15
1623603600 10.00 10.00 15
1623607200 11.00 11.00 16
1623610800 12.00 12.00 16
1623614400 13.00 13.00 16
1623618000 14.00 14.00 16
1623621600 15.00 15.00 16
1623625200 16.00 16.00 16
1623628800 17.00 17.00 16

Aktuellste Messwerte

Wettercharakter
Wetter: bedeckt, wenig Regen
Temperatur
16 °C
Feuchtigkeit
94 %
Wind
5 km/hWindrichtung: Ost
Luftdruck
1014 hPa
Messzeit: 13. Juni 2021, 18.00Datenquelle: METAR

Weitere Messstationen in der Nähe

Messstation Temperatur Entfernung
Tacoma 16 °C 6 km
Tacoma 14 °C 16 km
Olympia 16 °C 31 km
Seattle 16 °C 41 km
Seattle Boeing 17 °C 41 km
Bremerton 16 °C 45 km
Shelton 16 °C 47 km

Wind

Windrichtung Böen Mittelwind
° km/h km/h
1623546000 18.00 17.00 - 18.00 300° 15
1623549600 19.00 18.00 - 19.00 290° 10
1623553200 20.00 19.00 - 20.00
1623556800 21.00 20.00 - 21.00 270° 5
1623560400 22.00 21.00 - 22.00 130° 10
1623564000 23.00 22.00 - 23.00 90° 10
1623567600 0.00 23.00 - 0.00 80° 5
1623571200 1.00 0.00 - 1.00 60° 15
1623574800 2.00 1.00 - 2.00 70° 10
1623578400 3.00 2.00 - 3.00 90° 10
1623582000 4.00 3.00 - 4.00 0
1623585600 5.00 4.00 - 5.00
1623589200 6.00 5.00 - 6.00 260° 10
1623592800 7.00 6.00 - 7.00 360° 5
1623596400 8.00 7.00 - 8.00 300° 10
1623600000 9.00 8.00 - 9.00 360° 10
1623603600 10.00 9.00 - 10.00 360° 5
1623607200 11.00 10.00 - 11.00 320° 10
1623610800 12.00 11.00 - 12.00 310° 5
1623614400 13.00 12.00 - 13.00 290° 10
1623618000 14.00 13.00 - 14.00 280° 10
1623621600 15.00 14.00 - 15.00 270° 10
1623625200 16.00 15.00 - 16.00 280° 5
1623628800 17.00 16.00 - 17.00 270° 5

Ihre Wetterstation

Fehlt Ihre Wetterstation auf unserem Portal?

Schreiben Sie an network@meteonews.ch

Klima

Wann ist es am wärmsten? Wann regnet es am wenigsten? Unsere Klimadaten geben Auskunft.